Time;durP1;ratioP1;P1;durP2;ratioP2;P2;SDS_P1;SDS_P2;PMS_P1;PMS_P2;Temp;Humidity;BMP_temperature;BMP_pressure;BME280_temperature;BME280_humidity;BME280_pressure;Samples;Min_cycle;Max_cycle;Signal;HPM_P1;HPM_P2
2023/06/10 00:00:25;;;;;;;11.35;10.35;;;14.10;99.90;;;;;;4997984;28;20430;-58
2023/06/10 00:02:51;;;;;;;11.57;10.57;;;14.00;99.90;;;;;;4995699;28;20060;-59
2023/06/10 00:05:21;;;;;;;11.35;10.45;;;14.00;99.90;;;;;;4996219;28;20025;-58
2023/06/10 00:07:48;;;;;;;11.05;10.25;;;13.90;99.90;;;;;;4994290;28;20510;-57
2023/06/10 00:10:13;;;;;;;11.98;10.98;;;13.90;99.90;;;;;;4995789;28;20042;-57
2023/06/10 00:12:40;;;;;;;11.98;11.02;;;13.90;99.90;;;;;;4999938;28;20026;-58
2023/06/10 00:15:06;;;;;;;10.95;10.07;;;13.80;99.90;;;;;;4994518;28;20104;-57
2023/06/10 00:17:32;;;;;;;10.75;9.93;;;13.70;99.90;;;;;;4995072;28;20900;-59
2023/06/10 00:19:58;;;;;;;11.02;9.85;;;13.70;99.90;;;;;;4997123;28;20037;-58
2023/06/10 00:22:29;;;;;;;11.18;10.18;;;13.70;99.90;;;;;;5003780;28;20018;-58
2023/06/10 00:24:55;;;;;;;11.65;10.75;;;13.60;99.90;;;;;;5005034;28;20109;-57
2023/06/10 00:27:21;;;;;;;10.38;9.43;;;13.60;99.90;;;;;;5000845;28;20478;-59
2023/06/10 00:29:47;;;;;;;11.23;10.45;;;13.60;99.90;;;;;;5000360;28;20053;-57
2023/06/10 00:32:12;;;;;;;11.10;10.07;;;13.60;99.90;;;;;;4997631;28;20079;-58
2023/06/10 00:34:38;;;;;;;11.32;10.43;;;13.70;99.90;;;;;;5000839;28;20480;-58
2023/06/10 00:37:04;;;;;;;12.40;11.30;;;13.70;99.90;;;;;;5000968;28;20445;-59
2023/06/10 00:39:29;;;;;;;12.77;11.35;;;13.80;99.90;;;;;;4997806;28;20117;-58
2023/06/10 00:41:55;;;;;;;11.85;10.95;;;13.70;99.90;;;;;;5003239;28;20049;-59
2023/06/10 00:44:21;;;;;;;12.57;11.50;;;13.70;99.90;;;;;;5001293;28;20068;-57
2023/06/10 00:46:47;;;;;;;12.40;11.27;;;13.70;99.90;;;;;;4999101;28;20026;-58
2023/06/10 00:49:13;;;;;;;12.18;11.27;;;13.60;99.90;;;;;;5001229;28;20038;-59
2023/06/10 00:51:39;;;;;;;12.63;11.32;;;13.60;99.90;;;;;;4995832;28;20023;-59
2023/06/10 00:54:05;;;;;;;12.68;11.65;;;13.50;99.90;;;;;;4998815;28;20481;-58
2023/06/10 00:56:34;;;;;;;12.65;11.50;;;13.40;99.90;;;;;;4999665;28;20014;-59
2023/06/10 00:59:00;;;;;;;11.95;10.93;;;13.30;99.90;;;;;;5004244;28;20029;-57
2023/06/10 01:01:26;;;;;;;11.90;10.98;;;13.30;99.90;;;;;;5001140;28;20030;-57
2023/06/10 01:03:52;;;;;;;11.68;10.68;;;13.30;99.90;;;;;;4999653;28;20030;-59
2023/06/10 01:06:33;;;;;;;11.20;9.43;;;13.20;99.90;;;;;;4998953;28;20537;-58
2023/06/10 01:09:13;;;;;;;10.50;9.57;;;13.20;99.90;;;;;;4999141;28;20034;-58
2023/06/10 01:11:49;;;;;;;9.25;8.55;;;13.10;99.90;;;;;;4998670;28;20361;-59
2023/06/10 01:14:16;;;;;;;9.52;8.82;;;13.00;99.90;;;;;;4998988;28;20030;-58
2023/06/10 01:16:45;;;;;;;11.15;10.25;;;13.00;99.90;;;;;;4998153;28;20031;-58
2023/06/10 01:19:12;;;;;;;11.68;10.88;;;13.00;99.90;;;;;;5001413;28;20136;-58
2023/06/10 01:21:38;;;;;;;12.98;10.30;;;13.00;99.90;;;;;;4999398;28;20113;-58
2023/06/10 01:24:08;;;;;;;12.50;11.40;;;13.00;99.90;;;;;;5004162;28;20053;-58
2023/06/10 01:26:34;;;;;;;11.60;10.70;;;13.00;99.90;;;;;;4999776;28;20642;-57
2023/06/10 01:29:24;;;;;;;12.57;11.48;;;13.00;99.90;;;;;;4996140;28;20033;-57
2023/06/10 01:31:59;;;;;;;12.90;11.65;;;13.00;99.90;;;;;;4989093;28;20517;-57
2023/06/10 01:34:26;;;;;;;12.57;11.57;;;13.00;99.90;;;;;;4998498;28;20494;-59
2023/06/10 01:36:53;;;;;;;12.65;11.65;;;13.10;99.90;;;;;;4998831;28;20037;-58
2023/06/10 01:39:23;;;;;;;12.68;11.77;;;13.10;99.90;;;;;;5000039;28;20038;-57
2023/06/10 01:41:49;;;;;;;13.23;11.35;;;13.10;99.90;;;;;;4994777;28;20084;-57
2023/06/10 01:44:19;;;;;;;14.15;13.05;;;13.10;99.90;;;;;;5001518;28;20036;-57
2023/06/10 01:46:44;;;;;;;13.20;12.10;;;13.00;99.90;;;;;;4997412;28;20709;-57
2023/06/10 01:49:10;;;;;;;11.82;10.93;;;13.00;99.90;;;;;;4999101;28;20094;-56
2023/06/10 01:51:36;;;;;;;9.90;9.10;;;12.90;99.90;;;;;;5001007;28;20029;-58
2023/06/10 01:54:01;;;;;;;9.85;8.85;;;12.80;99.90;;;;;;4996320;28;20505;-57
2023/06/10 01:56:27;;;;;;;9.88;9.07;;;12.60;99.90;;;;;;5001301;28;20039;-57
2023/06/10 01:58:55;;;;;;;9.70;9.00;;;12.50;99.90;;;;;;4997148;28;20030;-56
2023/06/10 02:01:21;;;;;;;10.18;9.48;;;12.50;99.90;;;;;;4998044;28;20030;-58
2023/06/10 02:03:46;;;;;;;10.30;9.50;;;12.40;99.90;;;;;;4998976;28;20041;-55
2023/06/10 02:06:12;;;;;;;10.52;9.57;;;12.40;99.90;;;;;;4995955;28;20115;-58
2023/06/10 02:08:38;;;;;;;10.43;9.63;;;12.40;99.90;;;;;;4996974;28;20033;-58
2023/06/10 02:11:03;;;;;;;10.02;9.23;;;12.40;99.90;;;;;;4997074;28;20046;-58
2023/06/10 02:13:29;;;;;;;10.65;9.88;;;12.40;99.90;;;;;;4996969;28;20491;-58
2023/06/10 02:15:55;;;;;;;11.25;10.25;;;12.40;99.90;;;;;;4998185;28;20030;-58
2023/06/10 02:18:20;;;;;;;11.93;11.10;;;12.30;99.90;;;;;;4996302;28;20063;-57
2023/06/10 02:20:46;;;;;;;11.30;10.32;;;12.30;99.90;;;;;;4997681;28;20030;-58
2023/06/10 02:23:12;;;;;;;12.20;11.15;;;12.30;99.90;;;;;;4997875;28;20029;-59
2023/06/10 02:25:37;;;;;;;13.00;11.60;;;12.30;99.90;;;;;;4996172;28;20040;-59
2023/06/10 02:28:03;;;;;;;11.93;10.88;;;12.30;99.90;;;;;;4997746;28;20164;-58
2023/06/10 02:30:29;;;;;;;13.75;12.52;;;12.30;99.90;;;;;;4999033;28;20049;-58
2023/06/10 02:32:56;;;;;;;12.55;11.60;;;12.30;99.90;;;;;;4997156;28;20018;-57
2023/06/10 02:35:23;;;;;;;11.95;10.93;;;12.30;99.90;;;;;;4997980;28;20033;-57
2023/06/10 02:37:50;;;;;;;12.07;10.98;;;12.30;99.90;;;;;;4996815;28;20034;-58
2023/06/10 02:40:16;;;;;;;12.75;11.85;;;12.30;99.90;;;;;;4999047;28;20569;-58
2023/06/10 02:42:41;;;;;;;12.73;11.70;;;12.30;99.90;;;;;;4996404;28;20083;-59
2023/06/10 02:45:07;;;;;;;12.02;11.20;;;12.30;99.90;;;;;;4996919;28;20037;-59
2023/06/10 02:47:33;;;;;;;10.45;9.60;;;12.30;99.90;;;;;;4995628;28;20375;-58
2023/06/10 02:49:59;;;;;;;9.52;8.73;;;12.20;99.90;;;;;;4999457;28;20037;-57
2023/06/10 02:52:24;;;;;;;9.77;9.07;;;12.20;99.90;;;;;;4993008;28;20041;-58
2023/06/10 02:54:50;;;;;;;9.88;9.15;;;12.10;99.90;;;;;;4997751;28;20030;-59
2023/06/10 02:57:16;;;;;;;10.98;9.98;;;12.00;99.90;;;;;;4999242;28;20018;-58
2023/06/10 02:59:41;;;;;;;10.93;10.02;;;12.00;99.90;;;;;;5000986;28;20037;-58
2023/06/10 03:02:07;;;;;;;9.60;8.32;;;12.00;99.90;;;;;;4997698;28;20165;-57
2023/06/10 03:04:33;;;;;;;10.00;9.18;;;11.90;99.90;;;;;;4997685;28;20037;-57
2023/06/10 03:07:03;;;;;;;8.43;7.82;;;11.90;99.90;;;;;;4996369;28;20041;-58
2023/06/10 03:09:29;;;;;;;7.40;6.68;;;11.90;99.90;;;;;;4997014;28;20041;-58
2023/06/10 03:11:55;;;;;;;5.75;5.35;;;11.80;99.90;;;;;;4999429;28;20030;-57
2023/06/10 03:14:21;;;;;;;6.25;5.65;;;11.70;99.90;;;;;;4996613;28;20023;-58
2023/06/10 03:16:46;;;;;;;6.20;5.80;;;11.70;99.90;;;;;;4996707;28;20841;-58
2023/06/10 03:19:12;;;;;;;7.13;6.43;;;11.70;99.90;;;;;;4995748;28;20026;-59
2023/06/10 03:21:38;;;;;;;7.68;6.57;;;11.70;99.90;;;;;;4996769;28;20030;-57
2023/06/10 03:24:05;;;;;;;8.73;8.13;;;11.70;99.90;;;;;;4995932;28;20022;-59
2023/06/10 03:26:30;;;;;;;9.15;8.45;;;11.70;99.90;;;;;;4993420;28;20036;-57
2023/06/10 03:28:56;;;;;;;10.15;9.38;;;11.80;99.90;;;;;;4995937;28;20498;-57
2023/06/10 03:31:21;;;;;;;12.75;10.52;;;11.80;99.90;;;;;;4994956;28;20026;-57
2023/06/10 03:33:47;;;;;;;12.95;11.25;;;11.90;99.90;;;;;;4998525;28;20560;-57
2023/06/10 03:36:13;;;;;;;12.98;11.68;;;11.90;99.90;;;;;;4996118;28;20030;-58
2023/06/10 03:38:38;;;;;;;11.95;11.05;;;12.00;99.90;;;;;;5002368;28;20144;-58
2023/06/10 03:41:04;;;;;;;14.45;11.45;;;12.00;99.90;;;;;;4999048;28;20049;-58
2023/06/10 03:43:31;;;;;;;11.55;10.65;;;12.10;99.90;;;;;;4995693;28;20101;-58
2023/06/10 03:45:56;;;;;;;12.23;11.23;;;12.10;99.90;;;;;;4998573;28;20037;-58
2023/06/10 03:48:22;;;;;;;13.65;12.43;;;12.20;99.90;;;;;;4997106;28;20028;-59
2023/06/10 03:50:50;;;;;;;15.13;13.85;;;12.30;99.90;;;;;;4998433;28;20033;-57
2023/06/10 03:53:16;;;;;;;15.13;13.70;;;12.40;99.90;;;;;;4997623;28;20030;-57
2023/06/10 03:55:42;;;;;;;14.43;13.18;;;12.50;99.90;;;;;;4995847;28;20022;-58
2023/06/10 03:58:07;;;;;;;14.07;12.73;;;12.50;99.90;;;;;;4996654;28;20031;-57
2023/06/10 04:00:41;;;;;;;13.52;12.60;;;12.50;99.90;;;;;;4998541;28;20066;-57
2023/06/10 04:03:14;;;;;;;14.45;13.18;;;12.50;99.90;;;;;;4992442;28;20062;-57
2023/06/10 04:05:41;;;;;;;13.68;12.48;;;12.60;99.90;;;;;;4994702;28;20010;-57
2023/06/10 04:08:07;;;;;;;14.15;13.05;;;12.60;99.90;;;;;;4997777;28;20136;-58
2023/06/10 04:10:33;;;;;;;13.00;12.07;;;12.60;99.90;;;;;;4995074;28;20034;-58
2023/06/10 04:12:59;;;;;;;13.43;12.25;;;12.70;99.90;;;;;;4996454;28;20044;-57
2023/06/10 04:15:25;;;;;;;14.73;12.50;;;12.70;99.90;;;;;;4992949;28;20034;-58
2023/06/10 04:17:51;;;;;;;13.15;11.90;;;12.80;99.90;;;;;;4997095;28;20023;-58
2023/06/10 04:20:16;;;;;;;11.10;9.95;;;12.80;99.90;;;;;;4997350;28;20030;-59
2023/06/10 04:22:42;;;;;;;10.75;10.00;;;12.90;99.90;;;;;;4998182;28;20050;-59
2023/06/10 04:25:09;;;;;;;10.98;10.07;;;12.90;99.90;;;;;;4999703;28;20120;-57
2023/06/10 04:27:35;;;;;;;13.70;12.70;;;12.90;99.90;;;;;;4996027;28;20044;-57
2023/06/10 04:30:01;;;;;;;12.35;11.15;;;12.90;99.90;;;;;;4995085;28;20534;-58
2023/06/10 04:32:27;;;;;;;11.07;10.18;;;12.90;99.90;;;;;;4996972;28;20029;-55
2023/06/10 04:34:52;;;;;;;11.65;10.85;;;12.80;99.90;;;;;;4998401;28;20145;-59
2023/06/10 04:37:18;;;;;;;11.90;11.10;;;12.90;99.90;;;;;;4998288;28;20052;-58
2023/06/10 04:39:44;;;;;;;12.20;11.20;;;12.90;99.90;;;;;;4994677;28;20031;-58
2023/06/10 04:42:10;;;;;;;12.77;11.75;;;12.90;99.90;;;;;;4996116;28;20029;-58
2023/06/10 04:44:35;;;;;;;14.32;12.93;;;12.90;99.90;;;;;;4995834;28;20030;-59
2023/06/10 04:47:01;;;;;;;13.32;12.32;;;12.80;99.90;;;;;;4997252;28;20026;-59
2023/06/10 04:49:28;;;;;;;11.45;10.55;;;12.90;99.90;;;;;;4998366;28;20026;-58
2023/06/10 04:51:54;;;;;;;12.40;11.38;;;12.90;99.90;;;;;;4993376;28;20558;-57
2023/06/10 04:54:19;;;;;;;13.57;12.15;;;12.90;99.90;;;;;;4996484;28;20106;-59
2023/06/10 04:56:45;;;;;;;13.40;12.00;;;13.00;99.90;;;;;;4997825;28;20022;-59
2023/06/10 04:59:10;;;;;;;13.70;12.50;;;13.00;99.90;;;;;;4999491;28;20556;-58
2023/06/10 05:01:36;;;;;;;15.23;14.02;;;13.10;99.90;;;;;;4998003;28;20082;-61
2023/06/10 05:04:02;;;;;;;15.57;14.20;;;13.20;99.90;;;;;;4994074;28;20355;-58
2023/06/10 05:06:28;;;;;;;15.98;14.77;;;13.30;99.90;;;;;;4992736;28;20497;-59
2023/06/10 05:08:53;;;;;;;15.18;13.88;;;13.30;99.90;;;;;;5001863;28;20033;-58
2023/06/10 05:11:19;;;;;;;16.80;15.40;;;13.40;99.90;;;;;;5002499;28;20053;-57
2023/06/10 05:13:45;;;;;;;16.70;15.40;;;13.50;99.90;;;;;;5001095;28;20035;-58
2023/06/10 05:16:10;;;;;;;17.85;16.38;;;13.60;99.90;;;;;;5001567;28;20065;-58
2023/06/10 05:18:36;;;;;;;17.23;15.98;;;13.80;99.90;;;;;;4995452;28;20125;-58
2023/06/10 05:21:02;;;;;;;18.00;16.33;;;13.80;99.90;;;;;;5002701;28;20033;-58
2023/06/10 05:23:28;;;;;;;17.00;15.70;;;13.90;99.90;;;;;;5000357;28;20026;-58
2023/06/10 05:25:54;;;;;;;16.33;15.13;;;14.00;99.90;;;;;;4996584;28;20035;-58
2023/06/10 05:28:20;;;;;;;16.30;15.20;;;14.10;99.90;;;;;;4999944;28;20049;-57
2023/06/10 05:30:46;;;;;;;18.05;15.27;;;14.20;99.90;;;;;;5000212;28;20030;-58
2023/06/10 05:33:11;;;;;;;16.73;15.50;;;14.30;99.90;;;;;;5003070;28;20038;-59
2023/06/10 05:35:37;;;;;;;17.30;15.80;;;14.40;99.90;;;;;;5000124;28;20019;-58
2023/06/10 05:38:03;;;;;;;17.70;16.05;;;14.50;99.90;;;;;;5002706;28;20057;-59
2023/06/10 05:40:28;;;;;;;17.52;16.23;;;14.70;99.90;;;;;;5000321;28;20132;-57
2023/06/10 05:42:54;;;;;;;16.88;15.57;;;14.70;99.90;;;;;;5001076;28;20034;-57
2023/06/10 05:45:20;;;;;;;17.13;15.82;;;14.80;99.90;;;;;;4999619;28;20495;-59
2023/06/10 05:47:45;;;;;;;18.73;17.13;;;14.90;99.90;;;;;;4998205;28;20114;-58
2023/06/10 05:50:11;;;;;;;17.05;15.75;;;15.00;99.90;;;;;;5002171;28;20038;-59
2023/06/10 05:52:37;;;;;;;17.77;16.58;;;15.10;99.90;;;;;;5000822;28;20076;-58
2023/06/10 05:55:03;;;;;;;17.13;15.68;;;15.30;99.90;;;;;;5003388;28;20022;-59
2023/06/10 05:57:29;;;;;;;16.77;15.30;;;15.40;99.90;;;;;;5003065;28;20026;-59
2023/06/10 05:59:55;;;;;;;16.27;14.98;;;15.60;99.90;;;;;;5005514;28;20033;-59
2023/06/10 06:02:20;;;;;;;16.25;14.95;;;15.70;99.90;;;;;;4999321;28;20041;-59
2023/06/10 06:04:46;;;;;;;15.40;14.23;;;15.80;99.90;;;;;;5000073;28;20650;-58
2023/06/10 06:07:11;;;;;;;15.15;14.07;;;15.90;99.90;;;;;;5000038;28;20494;-59
2023/06/10 06:09:37;;;;;;;15.32;13.98;;;16.00;99.90;;;;;;5006190;28;20113;-58
2023/06/10 06:12:03;;;;;;;15.02;13.82;;;16.10;99.90;;;;;;4999335;28;20022;-58
2023/06/10 06:14:31;;;;;;;15.55;14.40;;;16.30;99.90;;;;;;5002250;28;20209;-58
2023/06/10 06:16:56;;;;;;;15.95;14.48;;;16.40;99.90;;;;;;4996824;28;20026;-59
2023/06/10 06:19:22;;;;;;;14.05;12.82;;;16.50;99.90;;;;;;5001877;28;20056;-58
2023/06/10 06:21:47;;;;;;;14.60;13.40;;;16.60;99.90;;;;;;5001710;28;20602;-58
2023/06/10 06:24:15;;;;;;;13.60;12.45;;;16.70;99.90;;;;;;4999762;28;20090;-59
2023/06/10 06:26:41;;;;;;;14.15;12.82;;;16.80;99.90;;;;;;4998928;28;20028;-59
2023/06/10 06:29:06;;;;;;;13.35;12.32;;;16.90;99.90;;;;;;4997836;28;20034;-59
2023/06/10 06:31:32;;;;;;;12.50;11.50;;;16.90;99.90;;;;;;4997035;28;20137;-58
2023/06/10 06:33:57;;;;;;;13.60;12.27;;;17.00;99.90;;;;;;5000993;28;20513;-59
2023/06/10 06:36:23;;;;;;;13.32;12.32;;;17.10;99.90;;;;;;4997618;28;20034;-59
2023/06/10 06:38:49;;;;;;;13.38;12.38;;;17.30;99.90;;;;;;4998526;28;20030;-59
2023/06/10 06:41:15;;;;;;;12.38;11.48;;;17.40;99.90;;;;;;4994782;28;20073;-58
2023/06/10 06:43:42;;;;;;;12.45;11.27;;;17.50;99.90;;;;;;4997690;28;20104;-57
2023/06/10 06:46:08;;;;;;;13.52;11.80;;;17.60;99.90;;;;;;4999822;28;20403;-58
2023/06/10 06:48:34;;;;;;;13.30;11.95;;;17.70;99.90;;;;;;4998491;28;20072;-59
2023/06/10 06:50:59;;;;;;;12.60;11.20;;;17.90;99.90;;;;;;4997403;28;20497;-58
2023/06/10 06:53:25;;;;;;;11.48;10.57;;;18.00;99.90;;;;;;4999986;28;20532;-58
2023/06/10 06:55:51;;;;;;;11.52;10.52;;;18.20;99.90;;;;;;4999303;28;20363;-58
2023/06/10 06:58:16;;;;;;;11.57;10.57;;;18.30;99.90;;;;;;4996079;28;20594;-60
2023/06/10 07:00:42;;;;;;;11.95;10.88;;;18.40;99.90;;;;;;4997357;28;20128;-58
2023/06/10 07:03:08;;;;;;;11.48;10.55;;;18.60;99.90;;;;;;4997959;28;20099;-58
2023/06/10 07:05:33;;;;;;;10.65;9.75;;;18.70;99.90;;;;;;4997282;28;20503;-58
2023/06/10 07:07:59;;;;;;;11.27;10.38;;;18.90;99.90;;;;;;4999756;28;20022;-58
2023/06/10 07:10:25;;;;;;;11.10;10.10;;;19.10;99.90;;;;;;5001310;28;20038;-58
2023/06/10 07:12:51;;;;;;;10.57;9.57;;;19.10;99.90;;;;;;4995998;28;20034;-59
2023/06/10 07:15:17;;;;;;;10.68;9.77;;;19.30;99.90;;;;;;4998856;28;20028;-59
2023/06/10 07:17:43;;;;;;;9.27;8.57;;;19.40;99.90;;;;;;5002254;28;20021;-58
2023/06/10 07:20:10;;;;;;;8.10;7.50;;;19.50;99.90;;;;;;4998523;28;20064;-58
2023/06/10 07:22:35;;;;;;;6.93;6.43;;;19.80;99.90;;;;;;4998550;28;20110;-57
2023/06/10 07:25:01;;;;;;;7.65;7.05;;;19.90;99.90;;;;;;4997202;28;20685;-59
2023/06/10 07:27:27;;;;;;;7.68;7.07;;;20.10;99.90;;;;;;5001004;28;20022;-58
2023/06/10 07:29:53;;;;;;;7.18;6.68;;;20.20;99.90;;;;;;5001789;28;20018;-59
2023/06/10 07:32:20;;;;;;;6.82;6.25;;;20.30;99.90;;;;;;4999721;28;20067;-58
2023/06/10 07:34:46;;;;;;;7.85;7.15;;;20.40;99.90;;;;;;4999034;28;20038;-59
2023/06/10 07:37:11;;;;;;;7.50;6.43;;;20.50;99.90;;;;;;4998928;28;20026;-58
2023/06/10 07:39:37;;;;;;;7.00;6.40;;;20.60;99.90;;;;;;4994874;28;20033;-59
2023/06/10 07:42:03;;;;;;;6.80;6.30;;;20.70;99.90;;;;;;5000995;28;20020;-59
2023/06/10 07:44:28;;;;;;;8.43;7.72;;;20.80;99.90;;;;;;5002416;28;20036;-60
2023/06/10 07:46:54;;;;;;;6.60;6.00;;;20.90;99.90;;;;;;4998055;28;20025;-58
2023/06/10 07:49:20;;;;;;;6.50;6.00;;;21.00;99.90;;;;;;4998886;28;20538;-59
2023/06/10 07:51:45;;;;;;;7.05;6.28;;;21.10;99.90;;;;;;5000328;28;20026;-60
2023/06/10 07:54:12;;;;;;;6.35;5.85;;;21.10;99.90;;;;;;5000404;28;20030;-59
2023/06/10 07:56:38;;;;;;;6.47;5.75;;;21.30;99.90;;;;;;4999242;28;20378;-58
2023/06/10 07:59:03;;;;;;;6.50;5.85;;;21.40;99.90;;;;;;4995300;28;20137;-58
2023/06/10 08:01:30;;;;;;;6.68;6.07;;;21.60;99.90;;;;;;4998787;28;20962;-60
2023/06/10 08:03:55;;;;;;;6.72;6.22;;;21.70;99.90;;;;;;4999408;28;20030;-60
2023/06/10 08:06:21;;;;;;;6.03;5.43;;;21.80;99.90;;;;;;5000826;28;20395;-59
2023/06/10 08:08:47;;;;;;;6.72;5.70;;;21.90;99.90;;;;;;5000236;28;20465;-58
2023/06/10 08:11:13;;;;;;;5.82;5.13;;;22.00;99.90;;;;;;4998817;28;20054;-60
2023/06/10 08:13:39;;;;;;;5.18;4.68;;;22.10;99.90;;;;;;5000086;28;20030;-59
2023/06/10 08:16:05;;;;;;;6.18;5.63;;;22.20;99.90;;;;;;4997666;28;20037;-59
2023/06/10 08:18:31;;;;;;;5.88;5.47;;;22.30;99.90;;;;;;4995237;28;20022;-59
2023/06/10 08:20:57;;;;;;;5.63;5.20;;;22.30;99.90;;;;;;4999583;28;20027;-59
2023/06/10 08:23:23;;;;;;;6.07;5.68;;;22.40;99.90;;;;;;4997642;28;20022;-59
2023/06/10 08:25:48;;;;;;;5.80;5.35;;;22.40;99.90;;;;;;5000696;28;20049;-58
2023/06/10 08:28:14;;;;;;;5.57;5.07;;;22.50;99.90;;;;;;4999099;28;20545;-59
2023/06/10 08:30:40;;;;;;;5.60;5.10;;;22.50;99.90;;;;;;4996690;28;20036;-60
2023/06/10 08:33:05;;;;;;;5.95;5.45;;;22.60;99.90;;;;;;5001538;28;20023;-58
2023/06/10 08:35:31;;;;;;;5.15;4.75;;;22.70;99.90;;;;;;5002663;28;20029;-59
2023/06/10 08:37:57;;;;;;;5.43;5.03;;;22.80;99.90;;;;;;4997654;28;20402;-60
2023/06/10 08:40:22;;;;;;;4.78;4.47;;;22.90;99.90;;;;;;4995750;28;20042;-59
2023/06/10 08:43:05;;;;;;;5.22;4.75;;;23.00;99.90;;;;;;5003047;28;20038;-59
2023/06/10 08:45:32;;;;;;;4.95;4.55;;;23.00;99.90;;;;;;5006787;28;20034;-58
2023/06/10 08:47:58;;;;;;;5.55;4.72;;;23.10;99.00;;;;;;5003453;28;20038;-59
2023/06/10 08:50:26;;;;;;;5.20;4.80;;;23.20;99.90;;;;;;5003038;28;20517;-59
2023/06/10 08:52:57;;;;;;;4.18;3.88;;;23.30;97.90;;;;;;5002084;28;20030;-60
2023/06/10 08:55:33;;;;;;;4.72;4.32;;;23.40;96.10;;;;;;5003376;28;20464;-59
2023/06/10 08:58:01;;;;;;;4.95;4.55;;;23.50;95.30;;;;;;5003230;28;20022;-59
2023/06/10 09:00:27;;;;;;;21.27;5.53;;;23.60;94.70;;;;;;5002707;28;20053;-59
2023/06/10 09:02:53;;;;;;;9.02;4.32;;;23.70;95.50;;;;;;5001080;28;20537;-59
2023/06/10 09:05:19;;;;;;;7.93;4.95;;;23.70;91.80;;;;;;5007184;28;20068;-59
2023/06/10 09:07:47;;;;;;;5.15;4.75;;;23.70;91.80;;;;;;5020758;28;20513;-60
2023/06/10 09:10:13;;;;;;;5.07;4.68;;;23.80;95.70;;;;;;5002874;28;20129;-59
2023/06/10 09:12:39;;;;;;;5.05;4.65;;;24.00;94.90;;;;;;5001993;28;20181;-59
2023/06/10 09:15:06;;;;;;;4.78;4.47;;;24.10;93.50;;;;;;5003205;28;20038;-59
2023/06/10 09:17:32;;;;;;;4.75;4.45;;;24.20;94.00;;;;;;4998388;28;20025;-59
2023/06/10 09:20:02;;;;;;;5.03;4.60;;;24.30;96.30;;;;;;5005281;28;20109;-59
2023/06/10 09:22:28;;;;;;;5.63;4.47;;;24.50;95.10;;;;;;5005392;28;20034;-59
2023/06/10 09:25:08;;;;;;;6.07;5.55;;;24.60;99.00;;;;;;4999236;28;20037;-59
2023/06/10 09:27:48;;;;;;;5.13;4.68;;;24.90;96.30;;;;;;4998224;28;20025;-59
2023/06/10 09:30:24;;;;;;;4.35;4.05;;;25.10;91.00;;;;;;4998293;28;20033;-59
2023/06/10 09:32:51;;;;;;;5.00;4.60;;;25.20;87.00;;;;;;4999955;28;20411;-58
2023/06/10 09:35:16;;;;;;;4.68;3.90;;;25.30;82.80;;;;;;5000044;28;20030;-58
2023/06/10 09:37:44;;;;;;;4.35;3.95;;;25.40;86.70;;;;;;4995984;28;20454;-59
2023/06/10 09:40:12;;;;;;;7.35;4.65;;;25.60;82.30;;;;;;4999442;28;20042;-58
2023/06/10 09:42:39;;;;;;;6.47;4.55;;;25.80;80.00;;;;;;5003962;28;20030;-60
2023/06/10 09:45:06;;;;;;;6.43;4.45;;;26.00;80.20;;;;;;5006002;28;20030;-60
2023/06/10 09:47:32;;;;;;;4.97;4.47;;;26.30;81.60;;;;;;5000224;28;20034;-59
2023/06/10 09:49:57;;;;;;;4.93;4.53;;;26.40;76.30;;;;;;5001823;28;20130;-60
2023/06/10 09:52:24;;;;;;;4.82;4.40;;;26.40;78.60;;;;;;5000831;28;20417;-58
2023/06/10 09:54:58;;;;;;;5.30;4.75;;;26.60;75.30;;;;;;5000892;28;20042;-59
2023/06/10 09:57:24;;;;;;;4.82;4.30;;;26.60;79.50;;;;;;4997401;28;20027;-62
2023/06/10 09:59:54;;;;;;;6.47;4.45;;;26.70;78.00;;;;;;4997852;28;20033;-60
2023/06/10 10:02:20;;;;;;;4.68;4.30;;;26.70;78.20;;;;;;4998215;28;20034;-60
2023/06/10 10:04:45;;;;;;;4.10;3.72;;;26.70;74.70;;;;;;4998357;28;20092;-59
2023/06/10 10:07:11;;;;;;;4.78;4.47;;;26.70;76.30;;;;;;5001039;28;20042;-59
2023/06/10 10:09:38;;;;;;;4.55;3.78;;;26.70;78.00;;;;;;4999956;28;20041;-59
2023/06/10 10:12:11;;;;;;;4.40;4.10;;;27.10;77.10;;;;;;4996124;28;20022;-60
2023/06/10 10:14:37;;;;;;;6.03;4.35;;;27.40;76.00;;;;;;5000416;28;20029;-60
2023/06/10 10:17:11;;;;;;;4.82;4.05;;;27.60;75.30;;;;;;4999245;28;20065;-60
2023/06/10 10:19:48;;;;;;;4.72;4.32;;;27.70;75.00;;;;;;4997976;28;20030;-60
2023/06/10 10:22:38;;;;;;;7.28;4.38;;;27.60;72.70;;;;;;4999592;28;20057;-59
2023/06/10 10:25:10;;;;;;;5.07;4.45;;;27.50;75.00;;;;;;4991584;28;20026;-59
2023/06/10 10:27:47;;;;;;;5.28;3.80;;;27.40;69.80;;;;;;4995445;28;20088;-59
2023/06/10 10:30:16;;;;;;;4.28;3.97;;;27.30;73.40;;;;;;4998924;28;20044;-59
2023/06/10 10:33:01;;;;;;;5.20;4.10;;;27.40;71.90;;;;;;5002038;28;20014;-60
2023/06/10 10:35:27;;;;;;;5.15;4.65;;;27.30;71.70;;;;;;4996863;28;20762;-60
2023/06/10 10:37:54;;;;;;;5.88;4.22;;;27.00;73.10;;;;;;4999199;28;20030;-60
2023/06/10 10:40:25;;;;;;;4.90;4.18;;;27.00;73.50;;;;;;4996088;28;20159;-59
2023/06/10 10:42:51;;;;;;;;;;;27.10;73.70;;;;;;4998774;28;20050;-60
2023/06/10 10:45:17;;;;;;;4.55;4.15;;;27.20;70.40;;;;;;4999147;28;19916;-59
2023/06/10 10:47:45;;;;;;;4.65;4.28;;;27.30;70.60;;;;;;4997490;28;20029;-60
2023/06/10 10:50:16;;;;;;;5.45;4.35;;;27.50;69.10;;;;;;4996617;28;20030;-59
2023/06/10 10:52:56;;;;;;;5.43;4.93;;;27.40;71.40;;;;;;4996441;28;20116;-60
2023/06/10 10:55:26;;;;;;;4.32;4.03;;;27.10;70.70;;;;;;4997613;28;20054;-59
2023/06/10 10:58:08;;;;;;;5.40;4.68;;;26.90;71.60;;;;;;4998645;28;20518;-59
2023/06/10 11:00:34;;;;;;;5.45;4.93;;;26.80;72.70;;;;;;4994018;28;20513;-60
2023/06/10 11:03:03;;;;;;;5.20;4.80;;;26.60;74.50;;;;;;4998786;28;20052;-59
2023/06/10 11:05:36;;;;;;;5.35;4.85;;;26.50;72.90;;;;;;4998302;28;20100;-60
2023/06/10 11:08:01;;;;;;;5.18;4.78;;;26.40;74.80;;;;;;4997056;28;20394;-59
2023/06/10 11:10:35;;;;;;;9.75;5.30;;;26.60;77.40;;;;;;4999396;28;20027;-61
2023/06/10 11:13:05;;;;;;;5.20;4.78;;;26.80;78.20;;;;;;4997069;28;20030;-59
2023/06/10 11:15:31;;;;;;;5.38;4.80;;;26.90;75.50;;;;;;4997418;28;20495;-59
2023/06/10 11:18:22;;;;;;;5.57;5.03;;;26.80;75.20;;;;;;4998184;28;20029;-60
2023/06/10 11:20:50;;;;;;;4.93;4.45;;;26.70;76.80;;;;;;4998032;28;20495;-60
2023/06/10 11:23:28;;;;;;;5.20;4.75;;;26.90;75.60;;;;;;5001629;28;20117;-59
2023/06/10 11:26:26;;;;;;;6.15;4.60;;;27.00;72.30;;;;;;4994095;28;20026;-59
2023/06/10 11:28:55;;;;;;;8.45;4.68;;;27.10;72.30;;;;;;4987213;28;20068;-59
2023/06/10 11:31:27;;;;;;;5.13;4.25;;;27.10;72.40;;;;;;4995648;28;20053;-58
2023/06/10 11:33:55;;;;;;;5.78;4.60;;;27.10;69.70;;;;;;4998545;28;20018;-59
2023/06/10 11:36:21;;;;;;;5.63;5.03;;;27.10;71.30;;;;;;4998576;28;20176;-58
2023/06/10 11:38:48;;;;;;;4.35;3.95;;;27.00;73.40;;;;;;4999936;28;20049;-60
2023/06/10 11:41:14;;;;;;;4.93;4.43;;;27.10;68.80;;;;;;4997903;28;20030;-59
2023/06/10 11:43:47;;;;;;;7.38;3.75;;;27.10;69.80;;;;;;4998671;28;20495;-59
2023/06/10 11:46:15;;;;;;;4.30;4.00;;;27.20;70.00;;;;;;4996378;28;20062;-60
2023/06/10 11:48:51;;;;;;;4.30;4.00;;;27.40;72.70;;;;;;4994581;28;20022;-59
2023/06/10 11:51:17;;;;;;;7.10;4.20;;;27.70;72.20;;;;;;4998339;28;20133;-59
2023/06/10 11:53:49;;;;;;;4.70;4.22;;;28.00;69.50;;;;;;4997656;28;20527;-61
2023/06/10 11:56:22;;;;;;;7.75;4.63;;;28.20;69.10;;;;;;4998944;28;20031;-59
2023/06/10 11:58:54;;;;;;;6.10;5.53;;;28.40;70.90;;;;;;4998079;28;20034;-59
2023/06/10 12:01:22;;;;;;;9.07;5.47;;;28.40;69.30;;;;;;5000070;28;20085;-59
2023/06/10 12:03:47;;;;;;;11.52;5.80;;;28.20;68.50;;;;;;4997169;28;20037;-59
2023/06/10 12:06:13;;;;;;;6.70;5.38;;;27.90;69.70;;;;;;4992455;28;20026;-59
2023/06/10 12:08:43;;;;;;;6.68;5.95;;;27.70;69.90;;;;;;4996244;28;20022;-59
2023/06/10 12:11:09;;;;;;;7.10;6.43;;;27.30;71.00;;;;;;4996370;28;20089;-59
2023/06/10 12:13:34;;;;;;;12.05;7.60;;;26.90;73.20;;;;;;4993684;28;20658;-59
2023/06/10 12:16:10;;;;;;;7.38;6.65;;;26.60;74.00;;;;;;4996044;28;20148;-59
2023/06/10 12:18:36;;;;;;;8.57;7.55;;;26.40;76.00;;;;;;4996157;28;20030;-60
2023/06/10 12:21:03;;;;;;;6.97;6.47;;;26.60;76.10;;;;;;4995392;28;20524;-59
2023/06/10 12:23:29;;;;;;;7.35;6.65;;;27.00;73.90;;;;;;4997778;28;20502;-60
2023/06/10 12:25:56;;;;;;;7.80;6.65;;;27.50;73.60;;;;;;4996941;28;20046;-59
2023/06/10 12:28:23;;;;;;;6.97;6.50;;;27.80;70.60;;;;;;4996930;28;20032;-59
2023/06/10 12:30:49;;;;;;;7.65;7.05;;;27.70;70.10;;;;;;4999066;28;20058;-60
2023/06/10 12:33:21;;;;;;;7.18;6.68;;;27.50;69.70;;;;;;4997710;28;20057;-59
2023/06/10 12:35:49;;;;;;;7.70;7.00;;;27.10;69.70;;;;;;4998934;28;20145;-59
2023/06/10 12:38:21;;;;;;;10.32;8.30;;;26.80;70.70;;;;;;4997778;28;20037;-59